createdAt,value
2023-03-02T08:17:48.490Z,25.00
2023-03-02T08:18:48.524Z,25.00
2023-03-02T08:19:48.375Z,25.00
2023-03-02T08:20:49.242Z,25.00
2023-03-02T08:21:49.083Z,25.00
2023-03-02T08:22:48.335Z,0.00
2023-03-02T08:23:48.151Z,0.00
2023-03-02T08:24:48.619Z,0.00
2023-03-02T08:25:47.885Z,0.00
2023-03-02T08:26:47.810Z,0.00
2023-03-02T08:27:47.724Z,0.00
2023-03-02T10:03:38.864Z,22.98
2023-03-02T10:05:38.567Z,26.09
2023-03-02T10:06:38.373Z,27.85
2023-03-02T10:07:38.267Z,26.96
2023-03-02T10:08:38.139Z,25.00
2023-03-02T10:09:38.015Z,25.65
2023-03-02T10:10:37.897Z,26.58
2023-03-02T10:11:37.790Z,25.83
2023-03-02T11:55:29.409Z,249.28
2023-03-02T11:56:29.319Z,250.00
2023-03-02T11:57:29.238Z,249.19
2023-03-02T11:58:29.154Z,249.82
2023-03-02T11:59:29.064Z,249.07
2023-03-02T12:00:28.965Z,248.81
2023-03-02T12:01:28.878Z,249.70
2023-03-02T12:02:28.798Z,247.96
2023-03-02T12:03:28.710Z,249.83
2023-03-02T12:04:28.626Z,249.33
2023-03-02T12:05:28.548Z,249.40
2023-03-02T12:06:28.420Z,249.10
2023-03-02T12:07:28.324Z,250.00
2023-03-02T12:08:28.240Z,250.00
2023-03-02T12:09:28.185Z,249.06
2023-03-02T12:10:28.061Z,248.82
2023-03-02T12:11:27.986Z,249.02
2023-03-02T12:12:27.895Z,250.00
2023-03-02T12:13:27.813Z,249.42
2023-03-02T12:14:27.744Z,248.38
2023-03-02T13:26:23.581Z,249.95
2023-03-02T14:01:20.299Z,250.00
2023-03-02T14:02:20.125Z,248.95
2023-03-02T14:03:20.006Z,249.73
2023-03-02T14:04:20.028Z,249.26
2023-03-02T14:05:19.953Z,248.46
2023-03-02T14:06:19.725Z,249.35
2023-03-02T14:07:19.631Z,246.16
2023-03-02T14:08:19.519Z,246.54
2023-03-02T14:09:19.433Z,244.31
2023-03-02T14:10:19.314Z,238.81
2023-03-02T14:11:19.211Z,237.26
2023-03-02T14:12:19.116Z,235.50
2023-03-02T14:13:19.025Z,235.32
2023-03-02T14:14:18.946Z,235.07
2023-03-02T14:15:18.902Z,235.83
2023-03-02T14:16:18.730Z,237.13
2023-03-02T14:17:18.633Z,236.35
2023-03-02T14:18:18.523Z,237.05
2023-03-02T14:19:18.524Z,237.90
2023-03-02T14:20:18.310Z,237.88
2023-03-02T14:21:18.228Z,239.73
2023-03-02T14:22:18.134Z,241.12
2023-03-02T14:23:18.051Z,241.73
2023-03-02T14:24:17.937Z,242.02
2023-03-02T14:25:17.834Z,245.10
2023-03-02T14:26:17.734Z,245.21
2023-03-02T15:25:12.777Z,236.83
2023-03-02T15:26:12.718Z,237.01
2023-03-02T15:27:12.673Z,236.63
2023-03-02T15:28:12.614Z,237.25
2023-03-02T15:29:12.546Z,236.78
2023-03-02T15:30:12.519Z,236.27
2023-03-02T15:31:12.447Z,235.60
2023-03-02T15:32:12.474Z,235.15
2023-03-02T15:33:12.315Z,235.77
2023-03-02T15:34:12.266Z,235.17
2023-03-02T15:35:12.472Z,235.17
2023-03-02T15:36:12.191Z,235.31
2023-03-02T15:37:12.111Z,236.00
2023-03-02T15:38:12.075Z,235.39
2023-03-02T15:39:12.028Z,233.66
2023-03-02T15:40:11.973Z,233.07
2023-03-02T15:41:11.926Z,233.97
2023-03-02T15:42:13.816Z,234.22
2023-03-02T15:43:11.850Z,234.12
2023-03-02T15:44:11.797Z,233.63
2023-03-02T15:45:11.738Z,233.70
2023-03-02T15:46:11.697Z,233.81
2023-03-02T15:47:11.655Z,232.75
2023-03-02T15:48:13.582Z,232.24
2023-03-02T15:49:11.576Z,232.40
2023-03-02T15:50:11.527Z,232.01
2023-03-02T15:51:11.481Z,232.29
2023-03-02T15:52:11.440Z,232.85
2023-03-02T15:53:11.398Z,232.08
2023-03-02T15:54:11.353Z,231.64
2023-03-02T15:55:11.320Z,230.63
2023-03-02T15:56:11.270Z,231.39
2023-03-02T15:57:11.224Z,229.89
2023-03-02T15:58:11.173Z,231.25
2023-03-02T15:59:11.122Z,230.73
2023-03-02T16:00:11.105Z,230.37
2023-03-02T16:01:11.134Z,229.58
2023-03-02T16:02:10.999Z,230.21
2023-03-02T16:03:10.981Z,229.84
2023-03-02T16:04:10.894Z,230.22
2023-03-02T16:05:10.863Z,229.78
2023-03-02T16:06:10.822Z,229.32
2023-03-02T16:07:10.816Z,229.82
2023-03-02T16:08:10.772Z,230.52
2023-03-02T16:09:10.709Z,228.55
2023-03-02T16:10:10.666Z,228.95
2023-03-02T16:11:10.640Z,228.94
2023-03-02T16:12:10.538Z,227.07
2023-03-02T16:13:10.490Z,227.86
2023-03-02T16:14:10.443Z,227.70
2023-03-02T16:15:10.405Z,227.41
2023-03-02T16:16:10.373Z,227.26
2023-03-02T16:17:10.249Z,227.15
2023-03-02T16:18:10.193Z,227.61
2023-03-02T16:19:10.129Z,228.07
2023-03-02T16:20:10.063Z,228.01
2023-03-02T16:21:09.987Z,226.71
2023-03-02T16:22:09.898Z,225.78
2023-03-02T16:23:09.876Z,227.78
2023-03-02T16:24:09.824Z,227.37
2023-03-02T16:25:09.774Z,225.83
2023-03-02T16:26:09.704Z,226.62
2023-03-02T16:27:09.633Z,225.98
2023-03-02T16:28:09.561Z,225.42
2023-03-02T16:29:09.497Z,225.46
2023-03-02T16:30:09.455Z,225.53
2023-03-02T16:31:09.397Z,226.20
2023-03-02T16:32:09.372Z,225.46
2023-03-02T16:33:09.195Z,224.25
2023-03-02T16:34:09.118Z,224.10
2023-03-02T16:35:08.993Z,224.80
2023-03-02T16:36:08.889Z,224.19
2023-03-02T16:37:08.789Z,224.85
2023-03-02T16:38:08.706Z,223.96
2023-03-02T16:39:08.615Z,224.00
2023-03-02T16:40:08.603Z,223.75
2023-03-02T16:41:08.401Z,223.28
2023-03-02T16:42:08.309Z,223.55
2023-03-02T16:43:08.208Z,223.86
2023-03-02T16:44:08.106Z,222.35
2023-03-02T16:45:08.086Z,222.63
2023-03-02T16:46:07.971Z,223.04
2023-03-02T16:47:07.813Z,222.93
2023-03-02T17:48:02.434Z,217.75
2023-03-02T17:49:02.349Z,217.05
2023-03-02T17:50:02.260Z,216.32
2023-03-02T17:51:02.186Z,217.96
2023-03-02T17:52:02.099Z,216.08
2023-03-02T17:53:02.028Z,217.40
2023-03-02T17:54:01.952Z,216.50
2023-03-02T17:55:01.893Z,216.76
2023-03-02T17:56:01.823Z,216.41
2023-03-02T17:57:01.743Z,216.34
2023-03-02T17:58:01.672Z,216.69
2023-03-02T17:59:01.594Z,215.55
2023-03-02T18:00:01.539Z,216.85
2023-03-02T18:01:01.479Z,215.42
2023-03-02T18:02:01.405Z,215.44
2023-03-02T18:03:01.433Z,215.23
2023-03-02T18:04:01.343Z,215.36
2023-03-02T18:05:01.201Z,215.48
2023-03-02T18:06:01.153Z,215.06
2023-03-02T18:07:01.105Z,216.06
2023-03-02T18:08:01.017Z,215.00
2023-03-02T18:09:00.938Z,215.13
2023-03-02T18:10:00.880Z,215.93
2023-03-02T18:11:00.818Z,215.09
2023-03-02T18:12:00.740Z,215.59
2023-03-02T18:13:00.697Z,214.85
2023-03-02T18:14:00.629Z,215.12
2023-03-02T18:15:00.564Z,214.04
2023-03-02T18:16:00.529Z,213.62
2023-03-02T18:17:00.434Z,214.31
2023-03-02T18:18:00.384Z,213.83
2023-03-02T18:19:00.311Z,215.38
2023-03-02T18:20:00.275Z,214.71
2023-03-02T18:21:00.213Z,214.58
2023-03-02T18:22:00.151Z,214.08
2023-03-02T18:23:00.113Z,213.95
2023-03-02T18:24:00.009Z,213.64
2023-03-02T18:24:59.953Z,213.38
2023-03-02T18:25:59.901Z,212.57
2023-03-02T18:26:59.842Z,213.93
2023-03-02T18:27:59.853Z,213.12
2023-03-02T18:28:59.725Z,213.78
2023-03-02T18:29:59.672Z,213.25
2023-03-02T18:30:59.631Z,213.33
2023-03-02T18:31:59.552Z,212.34
2023-03-02T18:32:59.499Z,212.16
2023-03-02T18:33:59.438Z,212.57
2023-03-02T18:34:59.384Z,212.44
2023-03-02T18:35:59.337Z,211.29
2023-03-02T18:36:59.270Z,211.45
2023-03-02T18:37:59.255Z,212.36
2023-03-02T18:38:59.181Z,211.39
2023-03-02T18:39:59.128Z,212.77
2023-03-02T18:40:59.094Z,210.96
2023-03-02T18:41:59.018Z,213.24
2023-03-02T18:42:58.972Z,211.23
2023-03-02T18:43:58.923Z,211.72
2023-03-02T18:44:58.874Z,211.11
2023-03-02T18:45:58.801Z,209.50
2023-03-02T18:46:58.808Z,210.28
2023-03-02T18:47:58.693Z,210.84
2023-03-02T18:48:58.644Z,211.35
2023-03-02T18:49:58.597Z,210.15
2023-03-02T18:50:58.544Z,210.02
2023-03-02T18:51:58.497Z,209.86
2023-03-02T18:52:58.465Z,210.09
2023-03-02T18:53:58.402Z,210.25
2023-03-02T18:54:58.353Z,210.21
2023-03-02T18:55:58.313Z,209.37
2023-03-02T18:56:58.250Z,210.79
2023-03-02T18:57:58.225Z,211.02
2023-03-02T18:58:58.162Z,209.58
2023-03-02T18:59:58.117Z,211.02
2023-03-02T19:00:58.125Z,209.31
2023-03-02T19:01:58.058Z,208.75
2023-03-02T19:02:57.983Z,209.20
2023-03-02T19:03:57.927Z,209.63
2023-03-02T19:04:57.883Z,209.15
2023-03-02T19:05:58.307Z,208.52
2023-03-02T19:06:57.785Z,208.58
2023-03-02T19:07:57.742Z,208.93
2023-03-02T20:26:54.948Z,200.04
2023-03-02T20:27:54.371Z,199.48
2023-03-02T20:28:54.341Z,201.62
2023-03-02T20:29:54.299Z,201.85
2023-03-02T20:30:54.305Z,198.63
2023-03-02T20:31:54.262Z,199.80
2023-03-02T20:32:54.214Z,199.75
2023-03-02T20:33:54.177Z,198.61
2023-03-02T20:34:54.115Z,198.57
2023-03-02T20:35:54.112Z,199.10
2023-03-02T20:36:54.016Z,199.14
2023-03-02T20:37:53.990Z,197.29
2023-03-02T20:38:54.013Z,199.85
2023-03-02T20:39:53.909Z,198.67
2023-03-02T20:40:53.867Z,197.99
2023-03-02T20:41:53.819Z,198.42
2023-03-02T20:42:53.776Z,198.11
2023-03-02T20:43:53.767Z,199.40
2023-03-02T20:44:53.774Z,199.54
2023-03-02T20:45:53.739Z,196.64
2023-03-02T20:46:53.638Z,198.38
2023-03-02T20:47:53.597Z,197.98
2023-03-02T20:48:53.570Z,198.99
2023-03-02T20:49:53.523Z,197.45
2023-03-02T20:50:53.484Z,198.62
2023-03-02T20:51:53.465Z,196.45
2023-03-02T20:52:53.412Z,197.27
2023-03-02T20:53:53.376Z,197.83
2023-03-02T20:54:53.342Z,197.32
2023-03-02T20:55:53.293Z,195.93
2023-03-02T20:56:53.268Z,195.68
2023-03-02T20:57:53.235Z,196.20
2023-03-02T20:58:53.215Z,196.76
2023-03-02T20:59:53.163Z,195.51
2023-03-02T21:00:53.105Z,195.91
2023-03-02T21:01:53.075Z,196.69
2023-03-02T21:02:53.040Z,196.18
2023-03-02T21:03:53.008Z,195.53
2023-03-02T21:04:53.032Z,194.88
2023-03-02T21:05:52.910Z,194.88
2023-03-02T21:06:52.896Z,196.22
2023-03-02T21:07:52.865Z,195.98
2023-03-02T21:08:52.831Z,195.83
2023-03-02T21:09:52.788Z,194.38
2023-03-02T21:10:52.798Z,194.47
2023-03-02T21:11:52.729Z,194.73
2023-03-02T21:12:52.698Z,192.76
2023-03-02T21:13:52.673Z,193.68
2023-03-02T21:14:52.628Z,194.77
2023-03-02T21:15:52.614Z,194.12
2023-03-02T21:16:52.556Z,193.30
2023-03-02T21:17:52.514Z,193.73
2023-03-02T21:18:52.486Z,193.30
2023-03-02T21:19:52.449Z,195.21
2023-03-02T21:20:52.414Z,191.96
2023-03-02T21:21:52.394Z,193.91
2023-03-02T21:22:52.987Z,193.80
2023-03-02T21:23:52.309Z,193.91
2023-03-02T21:24:52.272Z,194.64
2023-03-02T21:25:52.240Z,194.75
2023-03-02T21:26:52.206Z,193.93
2023-03-02T21:27:52.183Z,194.86
2023-03-02T21:28:52.154Z,192.11
2023-03-02T21:29:52.121Z,194.29
2023-03-02T21:30:52.109Z,192.04
2023-03-02T21:31:52.085Z,192.03
2023-03-02T21:32:52.028Z,192.90
2023-03-02T21:33:52.006Z,193.08
2023-03-02T21:34:51.967Z,192.22
2023-03-02T21:35:51.928Z,192.42
2023-03-02T21:36:51.896Z,193.21
2023-03-02T21:37:51.872Z,191.88
2023-03-02T21:38:51.832Z,192.14
2023-03-02T21:39:51.813Z,190.53
2023-03-02T21:40:51.758Z,191.91
2023-03-02T21:41:51.737Z,191.22
2023-03-02T21:42:51.680Z,191.76
2023-03-02T21:43:51.652Z,192.10
2023-03-02T21:44:51.608Z,191.65
2023-03-02T21:45:51.577Z,192.31
2023-03-02T21:46:51.544Z,190.56
2023-03-02T21:47:51.500Z,191.80
2023-03-02T21:48:51.484Z,190.39
2023-03-02T21:49:51.422Z,190.04
2023-03-02T21:50:51.404Z,192.00
2023-03-02T21:51:51.377Z,192.43
2023-03-02T21:52:51.343Z,191.02
2023-03-02T21:53:51.313Z,189.38
2023-03-02T21:54:51.283Z,189.81
2023-03-02T21:55:51.238Z,190.38
2023-03-02T21:56:51.201Z,192.01
2023-03-02T21:57:51.161Z,190.32
2023-03-02T21:58:51.143Z,189.73
2023-03-02T21:59:51.088Z,190.65
2023-03-02T22:00:51.904Z,190.79
2023-03-02T22:01:51.020Z,190.87
2023-03-02T22:02:50.982Z,190.51
2023-03-02T22:03:50.920Z,189.27
2023-03-02T22:04:50.875Z,190.35
2023-03-02T22:05:50.853Z,190.87
2023-03-02T22:06:50.818Z,190.24
2023-03-02T22:07:50.793Z,190.70
2023-03-02T22:08:50.774Z,190.74
2023-03-02T22:09:50.757Z,189.46
2023-03-02T22:10:50.692Z,188.54
2023-03-02T22:11:50.662Z,189.79
2023-03-02T22:12:50.619Z,190.37
2023-03-02T22:13:50.677Z,187.74
2023-03-02T22:14:50.556Z,189.02
2023-03-02T22:15:50.542Z,187.54
2023-03-02T22:16:50.502Z,189.09
2023-03-02T22:17:50.476Z,187.30
2023-03-02T22:18:50.450Z,187.23
2023-03-02T22:19:50.467Z,187.26
2023-03-02T22:20:50.426Z,187.30
2023-03-02T22:21:50.368Z,189.02
2023-03-02T22:22:50.335Z,189.41
2023-03-02T22:23:50.313Z,187.39
2023-03-02T22:24:50.280Z,187.67
2023-03-02T22:25:50.245Z,187.51
2023-03-02T22:26:50.222Z,186.19
2023-03-02T22:27:50.206Z,188.44
2023-03-02T22:28:50.167Z,187.71
2023-03-02T22:29:50.119Z,186.27
2023-03-02T22:30:50.081Z,185.77
2023-03-02T22:31:50.053Z,185.79
2023-03-02T22:32:50.010Z,188.65
2023-03-02T22:33:49.997Z,188.58
2023-03-02T22:34:49.958Z,186.18
2023-03-02T22:35:49.963Z,186.54
2023-03-02T22:36:49.881Z,188.59
2023-03-02T22:37:49.840Z,186.73
2023-03-02T22:38:49.817Z,185.91
2023-03-02T22:39:49.800Z,185.32
2023-03-02T22:40:49.752Z,185.43
2023-03-02T22:41:49.722Z,185.81
2023-03-02T22:42:49.761Z,184.23
2023-03-02T22:43:49.666Z,187.09
2023-03-02T22:44:49.644Z,186.66
2023-03-02T22:45:49.615Z,185.61
2023-03-02T22:46:49.588Z,183.23
2023-03-02T22:47:49.551Z,185.50
2023-03-02T22:48:49.545Z,186.15
2023-03-02T22:49:49.517Z,184.00
2023-03-02T22:50:49.512Z,184.89
2023-03-02T22:51:49.469Z,186.13
2023-03-02T22:52:49.447Z,185.62
2023-03-02T22:53:49.444Z,184.92
2023-03-02T22:54:49.400Z,183.80
2023-03-02T22:55:49.458Z,183.60
2023-03-02T22:56:49.360Z,185.70
2023-03-02T22:57:49.366Z,184.33
2023-03-02T22:58:49.314Z,185.44
2023-03-02T22:59:49.287Z,183.05
2023-03-02T23:00:49.304Z,182.34
2023-03-02T23:01:49.228Z,184.55
2023-03-02T23:02:49.197Z,184.67
2023-03-02T23:03:49.172Z,183.11
2023-03-02T23:04:49.219Z,182.17
2023-03-02T23:05:49.143Z,183.88
2023-03-02T23:06:49.093Z,183.14
2023-03-02T23:07:49.067Z,182.21
2023-03-02T23:08:49.040Z,183.69
2023-03-02T23:09:49.003Z,182.61
2023-03-02T23:10:48.973Z,185.18
2023-03-02T23:11:48.937Z,183.25
2023-03-02T23:12:48.919Z,183.73
2023-03-02T23:13:48.889Z,182.00
2023-03-02T23:14:48.872Z,181.36
2023-03-02T23:15:48.853Z,181.62
2023-03-02T23:16:48.846Z,180.17
2023-03-02T23:29:48.460Z,179.79
2023-03-02T23:30:48.430Z,181.74
2023-03-02T23:31:48.413Z,180.22
2023-03-02T23:32:48.406Z,179.11
2023-03-02T23:33:48.347Z,177.34
2023-03-02T23:34:48.283Z,179.05
2023-03-02T23:35:48.330Z,178.13
2023-03-02T23:36:48.222Z,178.96
2023-03-02T23:37:48.200Z,179.05
2023-03-02T23:38:48.152Z,178.76
2023-03-02T23:39:48.124Z,179.69
2023-03-02T23:40:48.078Z,178.58
2023-03-02T23:41:48.063Z,179.29
2023-03-02T23:42:47.999Z,178.72
2023-03-02T23:44:47.967Z,177.26
2023-03-02T23:45:47.949Z,177.88
2023-03-02T23:46:47.881Z,177.36
2023-03-02T23:47:47.816Z,177.55
2023-03-02T23:48:47.773Z,176.81
